sensor_id;sensor_type;location;lat;lon;timestamp;P1;durP1;ratioP1;P2;durP2;ratioP2
52041;SDS011;38052;45.944;13.624;2023-03-23T00:02:26;19.88;;;14.88;;
52041;SDS011;38052;45.944;13.624;2023-03-23T00:04:52;20.02;;;13.98;;
52041;SDS011;38052;45.944;13.624;2023-03-23T00:07:20;24.00;;;15.20;;
52041;SDS011;38052;45.944;13.624;2023-03-23T00:09:52;18.73;;;14.48;;
52041;SDS011;38052;45.944;13.624;2023-03-23T00:12:19;20.85;;;14.48;;
52041;SDS011;38052;45.944;13.624;2023-03-23T00:14:46;20.30;;;13.98;;
52041;SDS011;38052;45.944;13.624;2023-03-23T00:17:12;17.83;;;14.73;;
52041;SDS011;38052;45.944;13.624;2023-03-23T00:19:39;20.70;;;14.95;;
52041;SDS011;38052;45.944;13.624;2023-03-23T00:22:16;21.80;;;13.18;;
52041;SDS011;38052;45.944;13.624;2023-03-23T00:24:44;19.52;;;13.93;;
52041;SDS011;38052;45.944;13.624;2023-03-23T00:27:11;17.17;;;13.65;;
52041;SDS011;38052;45.944;13.624;2023-03-23T00:29:38;25.25;;;13.43;;
52041;SDS011;38052;45.944;13.624;2023-03-23T00:32:05;16.02;;;12.68;;
52041;SDS011;38052;45.944;13.624;2023-03-23T00:34:32;19.83;;;13.90;;
52041;SDS011;38052;45.944;13.624;2023-03-23T00:36:59;17.23;;;12.02;;
52041;SDS011;38052;45.944;13.624;2023-03-23T00:39:26;21.85;;;13.15;;
52041;SDS011;38052;45.944;13.624;2023-03-23T00:41:53;18.30;;;13.10;;
52041;SDS011;38052;45.944;13.624;2023-03-23T00:44:25;22.05;;;12.95;;
52041;SDS011;38052;45.944;13.624;2023-03-23T00:46:53;21.40;;;13.15;;
52041;SDS011;38052;45.944;13.624;2023-03-23T00:49:21;18.40;;;13.77;;
52041;SDS011;38052;45.944;13.624;2023-03-23T00:51:51;17.35;;;12.68;;
52041;SDS011;38052;45.944;13.624;2023-03-23T00:54:18;16.60;;;12.20;;
52041;SDS011;38052;45.944;13.624;2023-03-23T00:56:45;19.25;;;14.15;;
52041;SDS011;38052;45.944;13.624;2023-03-23T00:59:12;16.65;;;12.07;;
52041;SDS011;38052;45.944;13.624;2023-03-23T01:01:38;15.38;;;12.77;;
52041;SDS011;38052;45.944;13.624;2023-03-23T01:04:05;16.33;;;12.55;;
52041;SDS011;38052;45.944;13.624;2023-03-23T01:06:32;16.15;;;11.70;;
52041;SDS011;38052;45.944;13.624;2023-03-23T01:09:00;18.13;;;11.63;;
52041;SDS011;38052;45.944;13.624;2023-03-23T01:11:27;17.77;;;11.45;;
52041;SDS011;38052;45.944;13.624;2023-03-23T01:13:54;15.77;;;11.75;;
52041;SDS011;38052;45.944;13.624;2023-03-23T01:16:21;14.95;;;11.70;;
52041;SDS011;38052;45.944;13.624;2023-03-23T01:18:47;15.00;;;11.20;;
52041;SDS011;38052;45.944;13.624;2023-03-23T01:21:14;18.85;;;11.70;;
52041;SDS011;38052;45.944;13.624;2023-03-23T01:23:41;17.88;;;11.85;;
52041;SDS011;38052;45.944;13.624;2023-03-23T01:26:12;16.05;;;11.85;;
52041;SDS011;38052;45.944;13.624;2023-03-23T01:28:39;16.48;;;11.60;;
52041;SDS011;38052;45.944;13.624;2023-03-23T01:31:07;16.90;;;12.15;;
52041;SDS011;38052;45.944;13.624;2023-03-23T01:33:36;17.77;;;12.65;;
52041;SDS011;38052;45.944;13.624;2023-03-23T01:36:07;14.43;;;11.18;;
52041;SDS011;38052;45.944;13.624;2023-03-23T01:38:34;16.05;;;11.68;;
52041;SDS011;38052;45.944;13.624;2023-03-23T01:41:00;14.80;;;11.23;;
52041;SDS011;38052;45.944;13.624;2023-03-23T01:43:27;15.10;;;12.15;;
52041;SDS011;38052;45.944;13.624;2023-03-23T01:45:53;17.20;;;11.68;;
52041;SDS011;38052;45.944;13.624;2023-03-23T01:48:25;13.18;;;10.65;;
52041;SDS011;38052;45.944;13.624;2023-03-23T01:50:56;16.95;;;10.43;;
52041;SDS011;38052;45.944;13.624;2023-03-23T01:53:25;15.43;;;11.40;;
52041;SDS011;38052;45.944;13.624;2023-03-23T01:55:52;16.77;;;12.20;;
52041;SDS011;38052;45.944;13.624;2023-03-23T01:58:25;14.30;;;11.50;;
52041;SDS011;38052;45.944;13.624;2023-03-23T02:00:53;17.52;;;11.38;;
52041;SDS011;38052;45.944;13.624;2023-03-23T02:03:20;13.75;;;11.77;;
52041;SDS011;38052;45.944;13.624;2023-03-23T02:05:48;17.27;;;10.82;;
52041;SDS011;38052;45.944;13.624;2023-03-23T02:08:15;17.83;;;11.00;;
52041;SDS011;38052;45.944;13.624;2023-03-23T02:10:43;14.45;;;10.88;;
52041;SDS011;38052;45.944;13.624;2023-03-23T02:13:10;17.83;;;11.43;;
52041;SDS011;38052;45.944;13.624;2023-03-23T02:18:34;17.17;;;11.27;;
52041;SDS011;38052;45.944;13.624;2023-03-23T02:26:16;14.90;;;11.77;;
52041;SDS011;38052;45.944;13.624;2023-03-23T02:28:57;14.85;;;10.82;;
52041;SDS011;38052;45.944;13.624;2023-03-23T02:31:33;12.75;;;10.13;;
52041;SDS011;38052;45.944;13.624;2023-03-23T02:36:40;16.02;;;11.13;;
52041;SDS011;38052;45.944;13.624;2023-03-23T02:42:05;13.82;;;10.35;;
52041;SDS011;38052;45.944;13.624;2023-03-23T02:44:33;18.75;;;10.80;;
52041;SDS011;38052;45.944;13.624;2023-03-23T02:47:00;16.05;;;11.00;;
52041;SDS011;38052;45.944;13.624;2023-03-23T02:49:28;16.20;;;11.55;;
52041;SDS011;38052;45.944;13.624;2023-03-23T02:51:56;21.48;;;11.63;;
52041;SDS011;38052;45.944;13.624;2023-03-23T02:54:25;14.80;;;11.00;;
52041;SDS011;38052;45.944;13.624;2023-03-23T02:56:52;16.40;;;11.13;;
52041;SDS011;38052;45.944;13.624;2023-03-23T02:59:19;16.60;;;11.60;;
52041;SDS011;38052;45.944;13.624;2023-03-23T03:01:48;20.00;;;12.38;;
52041;SDS011;38052;45.944;13.624;2023-03-23T03:04:17;18.17;;;10.85;;
52041;SDS011;38052;45.944;13.624;2023-03-23T03:06:49;16.90;;;12.20;;
52041;SDS011;38052;45.944;13.624;2023-03-23T03:11:46;16.73;;;12.38;;
52041;SDS011;38052;45.944;13.624;2023-03-23T03:14:13;16.10;;;11.55;;
52041;SDS011;38052;45.944;13.624;2023-03-23T03:19:18;18.63;;;12.93;;
52041;SDS011;38052;45.944;13.624;2023-03-23T03:21:47;16.58;;;11.00;;
52041;SDS011;38052;45.944;13.624;2023-03-23T03:24:16;16.80;;;11.70;;
52041;SDS011;38052;45.944;13.624;2023-03-23T03:26:45;16.83;;;12.45;;
52041;SDS011;38052;45.944;13.624;2023-03-23T03:29:13;17.50;;;12.73;;
52041;SDS011;38052;45.944;13.624;2023-03-23T03:31:42;17.38;;;11.68;;
52041;SDS011;38052;45.944;13.624;2023-03-23T03:34:10;16.45;;;11.43;;
52041;SDS011;38052;45.944;13.624;2023-03-23T03:36:36;15.43;;;10.93;;
52041;SDS011;38052;45.944;13.624;2023-03-23T03:39:05;15.55;;;11.48;;
52041;SDS011;38052;45.944;13.624;2023-03-23T03:41:36;13.98;;;11.45;;
52041;SDS011;38052;45.944;13.624;2023-03-23T03:44:03;17.47;;;11.57;;
52041;SDS011;38052;45.944;13.624;2023-03-23T03:46:30;19.13;;;12.38;;
52041;SDS011;38052;45.944;13.624;2023-03-23T03:48:57;13.98;;;10.63;;
52041;SDS011;38052;45.944;13.624;2023-03-23T03:51:25;15.93;;;11.85;;
52041;SDS011;38052;45.944;13.624;2023-03-23T03:53:54;15.02;;;12.02;;
52041;SDS011;38052;45.944;13.624;2023-03-23T03:56:20;14.73;;;13.18;;
52041;SDS011;38052;45.944;13.624;2023-03-23T03:58:47;17.08;;;12.07;;
52041;SDS011;38052;45.944;13.624;2023-03-23T04:01:14;14.70;;;11.38;;
52041;SDS011;38052;45.944;13.624;2023-03-23T04:03:41;15.75;;;11.10;;
52041;SDS011;38052;45.944;13.624;2023-03-23T04:06:08;17.02;;;12.15;;
52041;SDS011;38052;45.944;13.624;2023-03-23T04:08:35;15.52;;;11.10;;
52041;SDS011;38052;45.944;13.624;2023-03-23T04:11:06;16.00;;;11.82;;
52041;SDS011;38052;45.944;13.624;2023-03-23T04:13:32;15.55;;;12.93;;
52041;SDS011;38052;45.944;13.624;2023-03-23T04:15:58;18.55;;;11.50;;
52041;SDS011;38052;45.944;13.624;2023-03-23T04:18:25;15.25;;;11.00;;
52041;SDS011;38052;45.944;13.624;2023-03-23T04:20:52;14.35;;;10.57;;
52041;SDS011;38052;45.944;13.624;2023-03-23T04:23:19;14.68;;;11.05;;
52041;SDS011;38052;45.944;13.624;2023-03-23T04:25:47;21.25;;;12.25;;
52041;SDS011;38052;45.944;13.624;2023-03-23T04:28:14;17.13;;;11.48;;
52041;SDS011;38052;45.944;13.624;2023-03-23T04:30:41;14.55;;;11.38;;
52041;SDS011;38052;45.944;13.624;2023-03-23T04:33:08;19.75;;;11.90;;
52041;SDS011;38052;45.944;13.624;2023-03-23T04:38:05;14.32;;;10.20;;
52041;SDS011;38052;45.944;13.624;2023-03-23T04:40:32;15.05;;;11.98;;
52041;SDS011;38052;45.944;13.624;2023-03-23T04:43:01;14.63;;;10.77;;
52041;SDS011;38052;45.944;13.624;2023-03-23T04:45:30;17.50;;;11.88;;
52041;SDS011;38052;45.944;13.624;2023-03-23T04:47:57;15.10;;;11.75;;
52041;SDS011;38052;45.944;13.624;2023-03-23T04:50:26;15.57;;;10.35;;
52041;SDS011;38052;45.944;13.624;2023-03-23T04:52:52;15.98;;;11.32;;
52041;SDS011;38052;45.944;13.624;2023-03-23T04:55:21;13.85;;;10.48;;
52041;SDS011;38052;45.944;13.624;2023-03-23T04:57:47;13.05;;;9.73;;
52041;SDS011;38052;45.944;13.624;2023-03-23T05:00:14;14.82;;;10.95;;
52041;SDS011;38052;45.944;13.624;2023-03-23T05:02:41;15.18;;;10.52;;
52041;SDS011;38052;45.944;13.624;2023-03-23T05:05:08;13.25;;;9.98;;
52041;SDS011;38052;45.944;13.624;2023-03-23T05:07:36;22.02;;;11.82;;
52041;SDS011;38052;45.944;13.624;2023-03-23T05:10:03;15.75;;;12.07;;
52041;SDS011;38052;45.944;13.624;2023-03-23T05:12:30;15.50;;;11.85;;
52041;SDS011;38052;45.944;13.624;2023-03-23T05:14:56;17.88;;;12.48;;
52041;SDS011;38052;45.944;13.624;2023-03-23T05:17:23;16.83;;;11.90;;
52041;SDS011;38052;45.944;13.624;2023-03-23T05:19:52;18.38;;;10.82;;
52041;SDS011;38052;45.944;13.624;2023-03-23T05:22:19;15.70;;;11.43;;
52041;SDS011;38052;45.944;13.624;2023-03-23T05:24:48;15.30;;;10.63;;
52041;SDS011;38052;45.944;13.624;2023-03-23T05:27:18;17.98;;;11.77;;
52041;SDS011;38052;45.944;13.624;2023-03-23T05:29:45;16.25;;;11.15;;
52041;SDS011;38052;45.944;13.624;2023-03-23T05:32:13;14.75;;;10.82;;
52041;SDS011;38052;45.944;13.624;2023-03-23T05:34:40;14.10;;;10.68;;
52041;SDS011;38052;45.944;13.624;2023-03-23T05:37:08;15.73;;;11.55;;
52041;SDS011;38052;45.944;13.624;2023-03-23T05:39:35;18.52;;;10.75;;
52041;SDS011;38052;45.944;13.624;2023-03-23T05:42:02;11.57;;;9.85;;
52041;SDS011;38052;45.944;13.624;2023-03-23T05:44:28;13.27;;;10.25;;
52041;SDS011;38052;45.944;13.624;2023-03-23T05:46:55;17.98;;;11.50;;
52041;SDS011;38052;45.944;13.624;2023-03-23T05:49:21;16.98;;;12.65;;
52041;SDS011;38052;45.944;13.624;2023-03-23T05:51:48;17.60;;;11.95;;
52041;SDS011;38052;45.944;13.624;2023-03-23T05:54:34;13.13;;;10.40;;
52041;SDS011;38052;45.944;13.624;2023-03-23T05:57:00;14.98;;;10.75;;
52041;SDS011;38052;45.944;13.624;2023-03-23T05:59:27;16.88;;;11.07;;
52041;SDS011;38052;45.944;13.624;2023-03-23T06:01:53;13.55;;;10.27;;
52041;SDS011;38052;45.944;13.624;2023-03-23T06:04:20;13.68;;;10.70;;
52041;SDS011;38052;45.944;13.624;2023-03-23T06:06:49;16.92;;;10.13;;
52041;SDS011;38052;45.944;13.624;2023-03-23T06:09:17;18.35;;;12.35;;
52041;SDS011;38052;45.944;13.624;2023-03-23T06:11:44;17.65;;;10.60;;
52041;SDS011;38052;45.944;13.624;2023-03-23T06:14:13;14.77;;;10.40;;
52041;SDS011;38052;45.944;13.624;2023-03-23T06:16:39;16.25;;;10.38;;
52041;SDS011;38052;45.944;13.624;2023-03-23T06:19:06;17.33;;;11.45;;
52041;SDS011;38052;45.944;13.624;2023-03-23T06:21:32;11.90;;;10.15;;
52041;SDS011;38052;45.944;13.624;2023-03-23T06:23:59;14.52;;;9.93;;
52041;SDS011;38052;45.944;13.624;2023-03-23T06:26:27;24.30;;;10.77;;
52041;SDS011;38052;45.944;13.624;2023-03-23T06:28:54;19.25;;;11.07;;
52041;SDS011;38052;45.944;13.624;2023-03-23T06:31:21;18.17;;;10.32;;
52041;SDS011;38052;45.944;13.624;2023-03-23T06:33:47;16.00;;;11.40;;
52041;SDS011;38052;45.944;13.624;2023-03-23T06:36:14;15.40;;;10.70;;
52041;SDS011;38052;45.944;13.624;2023-03-23T06:38:40;17.02;;;11.25;;
52041;SDS011;38052;45.944;13.624;2023-03-23T06:41:06;17.95;;;12.32;;
52041;SDS011;38052;45.944;13.624;2023-03-23T06:43:33;20.30;;;11.23;;
52041;SDS011;38052;45.944;13.624;2023-03-23T06:46:03;16.92;;;12.27;;
52041;SDS011;38052;45.944;13.624;2023-03-23T06:48:29;13.43;;;11.35;;
52041;SDS011;38052;45.944;13.624;2023-03-23T06:50:59;15.52;;;12.13;;
52041;SDS011;38052;45.944;13.624;2023-03-23T06:53:25;20.00;;;11.80;;
52041;SDS011;38052;45.944;13.624;2023-03-23T06:55:52;19.10;;;11.95;;
52041;SDS011;38052;45.944;13.624;2023-03-23T06:58:19;18.75;;;11.27;;
52041;SDS011;38052;45.944;13.624;2023-03-23T07:00:52;19.13;;;11.95;;
52041;SDS011;38052;45.944;13.624;2023-03-23T07:03:19;15.73;;;10.70;;
52041;SDS011;38052;45.944;13.624;2023-03-23T07:05:46;16.65;;;12.20;;
52041;SDS011;38052;45.944;13.624;2023-03-23T07:08:12;19.65;;;13.23;;
52041;SDS011;38052;45.944;13.624;2023-03-23T07:10:39;17.90;;;11.48;;
52041;SDS011;38052;45.944;13.624;2023-03-23T07:13:05;17.55;;;11.85;;
52041;SDS011;38052;45.944;13.624;2023-03-23T07:15:33;17.38;;;12.35;;
52041;SDS011;38052;45.944;13.624;2023-03-23T07:17:59;16.23;;;12.02;;
52041;SDS011;38052;45.944;13.624;2023-03-23T07:20:26;18.40;;;11.77;;
52041;SDS011;38052;45.944;13.624;2023-03-23T07:22:53;16.15;;;12.80;;
52041;SDS011;38052;45.944;13.624;2023-03-23T07:25:19;21.10;;;13.43;;
52041;SDS011;38052;45.944;13.624;2023-03-23T07:27:46;15.13;;;12.50;;
52041;SDS011;38052;45.944;13.624;2023-03-23T07:30:12;19.00;;;11.27;;
52041;SDS011;38052;45.944;13.624;2023-03-23T07:32:39;19.65;;;12.77;;
52041;SDS011;38052;45.944;13.624;2023-03-23T07:35:06;19.45;;;12.07;;
52041;SDS011;38052;45.944;13.624;2023-03-23T07:37:33;19.75;;;12.18;;
52041;SDS011;38052;45.944;13.624;2023-03-23T07:39:59;20.15;;;13.10;;
52041;SDS011;38052;45.944;13.624;2023-03-23T07:42:25;18.48;;;13.02;;
52041;SDS011;38052;45.944;13.624;2023-03-23T07:44:52;23.65;;;13.48;;
52041;SDS011;38052;45.944;13.624;2023-03-23T07:47:19;17.77;;;11.35;;
52041;SDS011;38052;45.944;13.624;2023-03-23T07:49:46;19.85;;;13.13;;
52041;SDS011;38052;45.944;13.624;2023-03-23T07:52:12;17.63;;;12.75;;
52041;SDS011;38052;45.944;13.624;2023-03-23T07:54:39;18.33;;;11.45;;
52041;SDS011;38052;45.944;13.624;2023-03-23T07:57:05;17.67;;;12.45;;
52041;SDS011;38052;45.944;13.624;2023-03-23T07:59:32;14.15;;;11.43;;
52041;SDS011;38052;45.944;13.624;2023-03-23T08:01:58;12.75;;;10.48;;
52041;SDS011;38052;45.944;13.624;2023-03-23T08:04:26;16.55;;;11.55;;
52041;SDS011;38052;45.944;13.624;2023-03-23T08:06:52;13.98;;;10.48;;
52041;SDS011;38052;45.944;13.624;2023-03-23T08:09:19;15.82;;;9.50;;
52041;SDS011;38052;45.944;13.624;2023-03-23T08:11:45;14.18;;;9.30;;
52041;SDS011;38052;45.944;13.624;2023-03-23T08:14:13;17.98;;;10.52;;
52041;SDS011;38052;45.944;13.624;2023-03-23T08:16:39;15.20;;;9.90;;
52041;SDS011;38052;45.944;13.624;2023-03-23T08:19:06;11.57;;;9.05;;
52041;SDS011;38052;45.944;13.624;2023-03-23T08:21:33;13.93;;;10.02;;
52041;SDS011;38052;45.944;13.624;2023-03-23T08:24:00;15.18;;;8.88;;
52041;SDS011;38052;45.944;13.624;2023-03-23T08:26:26;10.38;;;8.38;;
52041;SDS011;38052;45.944;13.624;2023-03-23T08:28:52;15.60;;;9.18;;
52041;SDS011;38052;45.944;13.624;2023-03-23T08:31:19;15.57;;;8.75;;
52041;SDS011;38052;45.944;13.624;2023-03-23T08:33:45;16.50;;;9.38;;
52041;SDS011;38052;45.944;13.624;2023-03-23T08:36:11;12.10;;;8.55;;
52041;SDS011;38052;45.944;13.624;2023-03-23T08:38:38;13.70;;;8.82;;
52041;SDS011;38052;45.944;13.624;2023-03-23T08:41:05;12.68;;;8.65;;
52041;SDS011;38052;45.944;13.624;2023-03-23T08:43:32;13.77;;;9.32;;
52041;SDS011;38052;45.944;13.624;2023-03-23T08:45:59;11.30;;;8.35;;
52041;SDS011;38052;45.944;13.624;2023-03-23T08:48:31;12.02;;;8.10;;
52041;SDS011;38052;45.944;13.624;2023-03-23T08:50:58;17.63;;;8.60;;
52041;SDS011;38052;45.944;13.624;2023-03-23T08:53:26;13.25;;;9.30;;
52041;SDS011;38052;45.944;13.624;2023-03-23T08:55:55;11.55;;;9.23;;
52041;SDS011;38052;45.944;13.624;2023-03-23T08:58:22;14.93;;;8.95;;
52041;SDS011;38052;45.944;13.624;2023-03-23T09:00:49;13.23;;;9.38;;
52041;SDS011;38052;45.944;13.624;2023-03-23T09:03:16;11.27;;;8.38;;
52041;SDS011;38052;45.944;13.624;2023-03-23T09:05:43;13.93;;;8.05;;
52041;SDS011;38052;45.944;13.624;2023-03-23T09:08:11;11.63;;;9.00;;
52041;SDS011;38052;45.944;13.624;2023-03-23T09:10:37;16.33;;;8.40;;
52041;SDS011;38052;45.944;13.624;2023-03-23T09:13:04;15.32;;;7.82;;
52041;SDS011;38052;45.944;13.624;2023-03-23T09:15:31;11.32;;;8.07;;
52041;SDS011;38052;45.944;13.624;2023-03-23T09:17:57;10.98;;;6.85;;
52041;SDS011;38052;45.944;13.624;2023-03-23T09:20:24;7.85;;;6.40;;
52041;SDS011;38052;45.944;13.624;2023-03-23T09:22:52;9.45;;;6.60;;
52041;SDS011;38052;45.944;13.624;2023-03-23T09:25:19;17.35;;;7.78;;
52041;SDS011;38052;45.944;13.624;2023-03-23T09:27:48;10.55;;;6.97;;
52041;SDS011;38052;45.944;13.624;2023-03-23T09:30:17;12.93;;;8.35;;
52041;SDS011;38052;45.944;13.624;2023-03-23T09:32:44;13.13;;;6.57;;
52041;SDS011;38052;45.944;13.624;2023-03-23T09:35:13;12.43;;;7.00;;
52041;SDS011;38052;45.944;13.624;2023-03-23T09:37:41;8.57;;;5.70;;
52041;SDS011;38052;45.944;13.624;2023-03-23T09:40:13;10.88;;;6.15;;
52041;SDS011;38052;45.944;13.624;2023-03-23T09:42:45;8.73;;;4.50;;
52041;SDS011;38052;45.944;13.624;2023-03-23T09:45:23;8.02;;;5.43;;
52041;SDS011;38052;45.944;13.624;2023-03-23T09:50:50;6.13;;;4.50;;
52041;SDS011;38052;45.944;13.624;2023-03-23T09:53:19;6.45;;;5.10;;
52041;SDS011;38052;45.944;13.624;2023-03-23T09:55:47;8.40;;;5.00;;
52041;SDS011;38052;45.944;13.624;2023-03-23T09:58:24;6.28;;;4.32;;
52041;SDS011;38052;45.944;13.624;2023-03-23T10:03:32;4.00;;;2.90;;
52041;SDS011;38052;45.944;13.624;2023-03-23T10:05:59;7.32;;;3.20;;
52041;SDS011;38052;45.944;13.624;2023-03-23T10:08:26;7.35;;;3.28;;
52041;SDS011;38052;45.944;13.624;2023-03-23T10:11:14;6.45;;;3.88;;
52041;SDS011;38052;45.944;13.624;2023-03-23T10:13:55;6.65;;;2.65;;
52041;SDS011;38052;45.944;13.624;2023-03-23T10:16:28;4.00;;;3.05;;
52041;SDS011;38052;45.944;13.624;2023-03-23T10:21:23;8.40;;;4.07;;
52041;SDS011;38052;45.944;13.624;2023-03-23T10:23:51;6.93;;;4.18;;
52041;SDS011;38052;45.944;13.624;2023-03-23T10:28:56;8.40;;;3.97;;
52041;SDS011;38052;45.944;13.624;2023-03-23T10:31:24;4.63;;;3.63;;
52041;SDS011;38052;45.944;13.624;2023-03-23T10:33:52;5.35;;;3.80;;
52041;SDS011;38052;45.944;13.624;2023-03-23T10:41:24;8.68;;;3.95;;
52041;SDS011;38052;45.944;13.624;2023-03-23T10:43:51;4.70;;;2.95;;
52041;SDS011;38052;45.944;13.624;2023-03-23T10:48:51;3.83;;;3.08;;
52041;SDS011;38052;45.944;13.624;2023-03-23T10:51:20;4.63;;;2.50;;
52041;SDS011;38052;45.944;13.624;2023-03-23T10:53:50;4.43;;;2.85;;
52041;SDS011;38052;45.944;13.624;2023-03-23T10:58:50;6.53;;;3.85;;
52041;SDS011;38052;45.944;13.624;2023-03-23T11:01:18;5.68;;;2.58;;
52041;SDS011;38052;45.944;13.624;2023-03-23T11:03:45;6.20;;;3.03;;
52041;SDS011;38052;45.944;13.624;2023-03-23T11:06:20;4.07;;;3.22;;
52041;SDS011;38052;45.944;13.624;2023-03-23T11:08:51;6.70;;;3.05;;
52041;SDS011;38052;45.944;13.624;2023-03-23T11:11:18;3.20;;;2.40;;
52041;SDS011;38052;45.944;13.624;2023-03-23T11:13:47;5.53;;;2.75;;
52041;SDS011;38052;45.944;13.624;2023-03-23T11:16:24;5.85;;;2.42;;
52041;SDS011;38052;45.944;13.624;2023-03-23T11:18:50;3.63;;;1.92;;
52041;SDS011;38052;45.944;13.624;2023-03-23T11:21:17;4.63;;;2.55;;
52041;SDS011;38052;45.944;13.624;2023-03-23T11:24:03;5.45;;;2.30;;
52041;SDS011;38052;45.944;13.624;2023-03-23T11:26:32;6.45;;;2.25;;
52041;SDS011;38052;45.944;13.624;2023-03-23T11:29:03;4.18;;;2.00;;
52041;SDS011;38052;45.944;13.624;2023-03-23T11:31:33;3.17;;;2.38;;
52041;SDS011;38052;45.944;13.624;2023-03-23T11:34:04;5.57;;;2.10;;
52041;SDS011;38052;45.944;13.624;2023-03-23T11:36:31;4.50;;;2.67;;
52041;SDS011;38052;45.944;13.624;2023-03-23T11:38:59;5.53;;;2.95;;
52041;SDS011;38052;45.944;13.624;2023-03-23T11:41:30;4.35;;;2.38;;
52041;SDS011;38052;45.944;13.624;2023-03-23T11:43:57;3.95;;;2.15;;
52041;SDS011;38052;45.944;13.624;2023-03-23T11:46:34;5.80;;;2.63;;
52041;SDS011;38052;45.944;13.624;2023-03-23T11:49:02;4.38;;;2.08;;
52041;SDS011;38052;45.944;13.624;2023-03-23T11:51:30;4.32;;;1.85;;
52041;SDS011;38052;45.944;13.624;2023-03-23T11:54:02;3.50;;;2.05;;
52041;SDS011;38052;45.944;13.624;2023-03-23T11:56:33;3.70;;;2.00;;
52041;SDS011;38052;45.944;13.624;2023-03-23T11:58:59;3.83;;;2.20;;
52041;SDS011;38052;45.944;13.624;2023-03-23T12:01:37;5.72;;;2.00;;
52041;SDS011;38052;45.944;13.624;2023-03-23T12:09:19;4.40;;;1.80;;
52041;SDS011;38052;45.944;13.624;2023-03-23T12:14:24;2.05;;;1.65;;
52041;SDS011;38052;45.944;13.624;2023-03-23T12:16:56;6.88;;;1.70;;
52041;SDS011;38052;45.944;13.624;2023-03-23T12:22:06;6.30;;;1.85;;
52041;SDS011;38052;45.944;13.624;2023-03-23T12:24:44;4.47;;;1.88;;
52041;SDS011;38052;45.944;13.624;2023-03-23T12:37:45;2.88;;;2.10;;
52041;SDS011;38052;45.944;13.624;2023-03-23T12:47:59;3.13;;;1.75;;
52041;SDS011;38052;45.944;13.624;2023-03-23T12:57:54;4.45;;;1.90;;
52041;SDS011;38052;45.944;13.624;2023-03-23T13:00:28;2.70;;;1.35;;
52041;SDS011;38052;45.944;13.624;2023-03-23T13:03:03;3.30;;;1.48;;
52041;SDS011;38052;45.944;13.624;2023-03-23T13:05:36;6.45;;;2.13;;
52041;SDS011;38052;45.944;13.624;2023-03-23T13:08:16;4.88;;;2.15;;
52041;SDS011;38052;45.944;13.624;2023-03-23T13:10:47;3.30;;;2.20;;
52041;SDS011;38052;45.944;13.624;2023-03-23T13:13:24;5.00;;;2.15;;
52041;SDS011;38052;45.944;13.624;2023-03-23T13:24:03;5.88;;;2.58;;
52041;SDS011;38052;45.944;13.624;2023-03-23T13:26:30;5.05;;;2.25;;
52041;SDS011;38052;45.944;13.624;2023-03-23T13:29:15;5.60;;;2.20;;
52041;SDS011;38052;45.944;13.624;2023-03-23T13:31:47;2.75;;;1.98;;
52041;SDS011;38052;45.944;13.624;2023-03-23T13:34:18;5.25;;;2.22;;
52041;SDS011;38052;45.944;13.624;2023-03-23T13:39:19;4.57;;;2.33;;
52041;SDS011;38052;45.944;13.624;2023-03-23T13:41:46;6.13;;;2.42;;
52041;SDS011;38052;45.944;13.624;2023-03-23T13:44:17;7.00;;;3.47;;
52041;SDS011;38052;45.944;13.624;2023-03-23T13:56:54;6.78;;;3.72;;
52041;SDS011;38052;45.944;13.624;2023-03-23T14:01:57;6.78;;;3.50;;
52041;SDS011;38052;45.944;13.624;2023-03-23T14:04:39;8.45;;;3.13;;
52041;SDS011;38052;45.944;13.624;2023-03-23T14:07:09;4.03;;;2.75;;
52041;SDS011;38052;45.944;13.624;2023-03-23T14:09:41;5.72;;;2.45;;
52041;SDS011;38052;45.944;13.624;2023-03-23T14:12:21;6.30;;;2.30;;
52041;SDS011;38052;45.944;13.624;2023-03-23T14:17:19;5.20;;;2.40;;
52041;SDS011;38052;45.944;13.624;2023-03-23T14:19:51;4.70;;;1.50;;
52041;SDS011;38052;45.944;13.624;2023-03-23T14:22:19;3.50;;;1.90;;
52041;SDS011;38052;45.944;13.624;2023-03-23T14:24:46;2.90;;;1.50;;
52041;SDS011;38052;45.944;13.624;2023-03-23T14:27:14;6.57;;;2.25;;
52041;SDS011;38052;45.944;13.624;2023-03-23T14:29:40;4.07;;;2.10;;
52041;SDS011;38052;45.944;13.624;2023-03-23T14:32:10;3.88;;;1.83;;
52041;SDS011;38052;45.944;13.624;2023-03-23T14:34:38;3.50;;;1.50;;
52041;SDS011;38052;45.944;13.624;2023-03-23T14:37:04;3.90;;;1.58;;
52041;SDS011;38052;45.944;13.624;2023-03-23T14:39:36;2.22;;;1.30;;
52041;SDS011;38052;45.944;13.624;2023-03-23T14:42:03;2.33;;;1.42;;
52041;SDS011;38052;45.944;13.624;2023-03-23T14:44:32;3.80;;;1.33;;
52041;SDS011;38052;45.944;13.624;2023-03-23T14:47:00;2.40;;;1.33;;
52041;SDS011;38052;45.944;13.624;2023-03-23T14:49:31;3.92;;;2.10;;
52041;SDS011;38052;45.944;13.624;2023-03-23T14:52:02;2.35;;;1.70;;
52041;SDS011;38052;45.944;13.624;2023-03-23T14:54:29;2.92;;;1.20;;
52041;SDS011;38052;45.944;13.624;2023-03-23T14:57:01;2.92;;;1.77;;
52041;SDS011;38052;45.944;13.624;2023-03-23T14:59:29;2.42;;;1.25;;
52041;SDS011;38052;45.944;13.624;2023-03-23T15:01:56;2.65;;;1.60;;
52041;SDS011;38052;45.944;13.624;2023-03-23T15:04:26;4.18;;;1.23;;
52041;SDS011;38052;45.944;13.624;2023-03-23T15:06:58;2.28;;;1.23;;
52041;SDS011;38052;45.944;13.624;2023-03-23T15:09:26;3.42;;;1.33;;
52041;SDS011;38052;45.944;13.624;2023-03-23T15:11:57;4.07;;;1.38;;
52041;SDS011;38052;45.944;13.624;2023-03-23T15:14:26;3.13;;;1.35;;
52041;SDS011;38052;45.944;13.624;2023-03-23T15:16:54;2.58;;;1.20;;
52041;SDS011;38052;45.944;13.624;2023-03-23T15:19:53;3.10;;;1.20;;
52041;SDS011;38052;45.944;13.624;2023-03-23T15:22:21;3.15;;;1.70;;
52041;SDS011;38052;45.944;13.624;2023-03-23T15:24:48;6.10;;;1.75;;
52041;SDS011;38052;45.944;13.624;2023-03-23T15:29:53;3.33;;;1.73;;
52041;SDS011;38052;45.944;13.624;2023-03-23T15:32:20;4.80;;;1.50;;
52041;SDS011;38052;45.944;13.624;2023-03-23T15:34:47;2.97;;;1.38;;
52041;SDS011;38052;45.944;13.624;2023-03-23T15:37:18;4.72;;;1.98;;
52041;SDS011;38052;45.944;13.624;2023-03-23T15:39:45;7.28;;;2.70;;
52041;SDS011;38052;45.944;13.624;2023-03-23T15:42:22;3.33;;;2.10;;
52041;SDS011;38052;45.944;13.624;2023-03-23T15:44:55;5.13;;;2.13;;
52041;SDS011;38052;45.944;13.624;2023-03-23T15:47:21;5.68;;;2.53;;
52041;SDS011;38052;45.944;13.624;2023-03-23T15:49:58;3.38;;;2.10;;
52041;SDS011;38052;45.944;13.624;2023-03-23T15:52:24;2.50;;;1.67;;
52041;SDS011;38052;45.944;13.624;2023-03-23T15:54:51;7.57;;;2.20;;
52041;SDS011;38052;45.944;13.624;2023-03-23T15:57:17;4.75;;;2.22;;
52041;SDS011;38052;45.944;13.624;2023-03-23T15:59:44;5.00;;;2.20;;
52041;SDS011;38052;45.944;13.624;2023-03-23T16:02:21;5.93;;;1.65;;
52041;SDS011;38052;45.944;13.624;2023-03-23T16:04:48;3.42;;;2.25;;
52041;SDS011;38052;45.944;13.624;2023-03-23T16:07:15;5.63;;;2.20;;
52041;SDS011;38052;45.944;13.624;2023-03-23T16:09:42;4.03;;;2.42;;
52041;SDS011;38052;45.944;13.624;2023-03-23T16:12:12;3.70;;;1.67;;
52041;SDS011;38052;45.944;13.624;2023-03-23T16:14:39;2.85;;;1.77;;